Du har inga inställningar för hoppväder.nu

Hoppväder.nu

Senast uppdaterat 00:39

UTC-tid

2019-06-25 kl. 22:39


Sol och måne

Solen går upp 3:47 och går ner 23:19 (beräknade cirkatider)
Nästa fullmåne blir om 20 dagar (2019-07-16)

METAR

ESOE (Örebro)
(19 minuter sedan)
ESOE 252220Z 02004KT 9999 -DZ NSC 15/14 Q1022=



ESOK (Karlstad)
(19 minuter sedan)
ESOK 252220Z AUTO 07003KT 9999 -DZ FEW100/// 14/14 Q1022=



ESGR (Skövde)
(19 minuter sedan)
ESGR 252220Z AUTO VRB02KT 9999 SCT051/// 17/16 Q1021=



ESSD (Borlänge)
(19 minuter sedan)
ESSD 252220Z AUTO 29004KT 9999 SCT030/// OVC048/// 14/11 Q1022=



ESOW (Västerås)
(19 minuter sedan)
ESOW 252220Z AUTO VRB02KT 8000 -RA FEW042/// OVC066/// 15/14 Q1023=



TAF

ESOE (Örebro)
(129 minuter sedan)
ESOE 252030Z 2521/2601 01003KT CAVOK PROB40 2521/2601 4000 RA BR=



ESOK (Karlstad)
ESOK



ESGR (Skövde)
ESGR



ESSD (Borlänge)
ESSD



ESOW (Västerås)
ESOW





Kodnycklar till TAF och METAR






LHP

(Örebro är område G2a i Södra delen)

Prognos är inte uppdaterad




Spotting

Hur fungerar spotthjälpen och Vindkartan?

Markvind är ca 0 m/s.



Vindkartan

Senast uppdaterad 00:39




All data kommer från LFV.se